sensor_id;sensor_type;location;lat;lon;timestamp;P1;durP1;ratioP1;P2;durP2;ratioP2
23390;SDS011;11868;45.606;5.302;2023-07-22T00:02:10;4.40;;;2.22;;
23390;SDS011;11868;45.606;5.302;2023-07-22T00:04:35;20.23;;;3.08;;
23390;SDS011;11868;45.606;5.302;2023-07-22T00:07:00;7.10;;;2.40;;
23390;SDS011;11868;45.606;5.302;2023-07-22T00:09:26;4.68;;;2.45;;
23390;SDS011;11868;45.606;5.302;2023-07-22T00:11:51;7.57;;;2.40;;
23390;SDS011;11868;45.606;5.302;2023-07-22T00:14:16;3.58;;;2.10;;
23390;SDS011;11868;45.606;5.302;2023-07-22T00:16:42;3.63;;;1.95;;
23390;SDS011;11868;45.606;5.302;2023-07-22T00:19:07;3.03;;;1.80;;
23390;SDS011;11868;45.606;5.302;2023-07-22T00:21:33;6.18;;;2.33;;
23390;SDS011;11868;45.606;5.302;2023-07-22T00:23:59;3.53;;;2.00;;
23390;SDS011;11868;45.606;5.302;2023-07-22T00:26:25;4.13;;;1.80;;
23390;SDS011;11868;45.606;5.302;2023-07-22T00:28:50;6.75;;;2.17;;
23390;SDS011;11868;45.606;5.302;2023-07-22T00:31:15;5.57;;;2.50;;
23390;SDS011;11868;45.606;5.302;2023-07-22T00:33:41;4.90;;;2.28;;
23390;SDS011;11868;45.606;5.302;2023-07-22T00:36:07;3.60;;;2.00;;
23390;SDS011;11868;45.606;5.302;2023-07-22T00:38:32;3.72;;;2.30;;
23390;SDS011;11868;45.606;5.302;2023-07-22T00:40:57;3.33;;;2.38;;
23390;SDS011;11868;45.606;5.302;2023-07-22T00:43:23;6.68;;;2.65;;
23390;SDS011;11868;45.606;5.302;2023-07-22T00:45:50;3.30;;;2.10;;
23390;SDS011;11868;45.606;5.302;2023-07-22T00:48:16;5.53;;;2.30;;
23390;SDS011;11868;45.606;5.302;2023-07-22T00:50:42;5.45;;;2.22;;
23390;SDS011;11868;45.606;5.302;2023-07-22T00:53:08;6.10;;;2.20;;
23390;SDS011;11868;45.606;5.302;2023-07-22T00:55:33;5.55;;;2.22;;
23390;SDS011;11868;45.606;5.302;2023-07-22T00:58:00;3.25;;;2.20;;
23390;SDS011;11868;45.606;5.302;2023-07-22T01:00:26;3.95;;;2.10;;
23390;SDS011;11868;45.606;5.302;2023-07-22T01:02:51;3.42;;;2.17;;
23390;SDS011;11868;45.606;5.302;2023-07-22T01:05:17;6.40;;;2.35;;
23390;SDS011;11868;45.606;5.302;2023-07-22T01:07:42;3.67;;;2.20;;
23390;SDS011;11868;45.606;5.302;2023-07-22T01:10:08;3.20;;;2.20;;
23390;SDS011;11868;45.606;5.302;2023-07-22T01:12:34;2.60;;;1.83;;
23390;SDS011;11868;45.606;5.302;2023-07-22T01:15:00;4.07;;;2.20;;
23390;SDS011;11868;45.606;5.302;2023-07-22T01:17:28;6.18;;;2.53;;
23390;SDS011;11868;45.606;5.302;2023-07-22T01:19:53;3.38;;;2.05;;
23390;SDS011;11868;45.606;5.302;2023-07-22T01:22:19;3.60;;;2.60;;
23390;SDS011;11868;45.606;5.302;2023-07-22T01:24:44;5.25;;;2.20;;
23390;SDS011;11868;45.606;5.302;2023-07-22T01:27:11;3.33;;;2.17;;
23390;SDS011;11868;45.606;5.302;2023-07-22T01:29:38;3.40;;;2.10;;
23390;SDS011;11868;45.606;5.302;2023-07-22T01:32:03;4.35;;;2.03;;
23390;SDS011;11868;45.606;5.302;2023-07-22T01:34:30;6.38;;;2.20;;
23390;SDS011;11868;45.606;5.302;2023-07-22T01:36:56;3.90;;;2.40;;
23390;SDS011;11868;45.606;5.302;2023-07-22T01:39:22;3.83;;;2.10;;
23390;SDS011;11868;45.606;5.302;2023-07-22T01:41:47;5.90;;;2.38;;
23390;SDS011;11868;45.606;5.302;2023-07-22T01:44:13;4.10;;;1.88;;
23390;SDS011;11868;45.606;5.302;2023-07-22T01:46:39;3.08;;;2.05;;
23390;SDS011;11868;45.606;5.302;2023-07-22T01:49:05;4.05;;;2.53;;
23390;SDS011;11868;45.606;5.302;2023-07-22T01:51:36;3.97;;;2.53;;
23390;SDS011;11868;45.606;5.302;2023-07-22T01:54:07;4.50;;;2.50;;
23390;SDS011;11868;45.606;5.302;2023-07-22T01:56:34;6.82;;;2.63;;
23390;SDS011;11868;45.606;5.302;2023-07-22T01:59:00;3.70;;;2.22;;
23390;SDS011;11868;45.606;5.302;2023-07-22T02:01:26;3.58;;;2.20;;
23390;SDS011;11868;45.606;5.302;2023-07-22T02:03:51;3.20;;;2.05;;
23390;SDS011;11868;45.606;5.302;2023-07-22T02:06:16;6.05;;;2.20;;
23390;SDS011;11868;45.606;5.302;2023-07-22T02:08:41;4.32;;;2.22;;
23390;SDS011;11868;45.606;5.302;2023-07-22T02:11:07;4.07;;;2.25;;
23390;SDS011;11868;45.606;5.302;2023-07-22T02:13:34;3.08;;;2.53;;
23390;SDS011;11868;45.606;5.302;2023-07-22T02:16:00;4.68;;;2.63;;
23390;SDS011;11868;45.606;5.302;2023-07-22T02:18:26;3.72;;;1.98;;
23390;SDS011;11868;45.606;5.302;2023-07-22T02:20:52;4.20;;;2.35;;
23390;SDS011;11868;45.606;5.302;2023-07-22T02:23:18;3.67;;;2.13;;
23390;SDS011;11868;45.606;5.302;2023-07-22T02:25:43;10.05;;;2.50;;
23390;SDS011;11868;45.606;5.302;2023-07-22T02:28:09;4.20;;;2.42;;
23390;SDS011;11868;45.606;5.302;2023-07-22T02:30:35;4.75;;;2.40;;
23390;SDS011;11868;45.606;5.302;2023-07-22T02:33:01;5.13;;;2.30;;
23390;SDS011;11868;45.606;5.302;2023-07-22T02:35:27;5.13;;;2.20;;
23390;SDS011;11868;45.606;5.302;2023-07-22T02:37:52;4.63;;;2.38;;
23390;SDS011;11868;45.606;5.302;2023-07-22T02:40:18;6.13;;;2.60;;
23390;SDS011;11868;45.606;5.302;2023-07-22T02:42:43;5.18;;;2.47;;
23390;SDS011;11868;45.606;5.302;2023-07-22T02:45:08;6.68;;;2.35;;
23390;SDS011;11868;45.606;5.302;2023-07-22T02:47:34;4.45;;;2.30;;
23390;SDS011;11868;45.606;5.302;2023-07-22T02:49:59;2.72;;;2.20;;
23390;SDS011;11868;45.606;5.302;2023-07-22T02:52:25;5.90;;;2.75;;
23390;SDS011;11868;45.606;5.302;2023-07-22T02:55:03;4.07;;;1.92;;
23390;SDS011;11868;45.606;5.302;2023-07-22T02:57:29;3.72;;;2.47;;
23390;SDS011;11868;45.606;5.302;2023-07-22T02:59:55;6.75;;;2.47;;
23390;SDS011;11868;45.606;5.302;2023-07-22T03:02:21;4.45;;;2.53;;
23390;SDS011;11868;45.606;5.302;2023-07-22T03:04:46;3.83;;;2.55;;
23390;SDS011;11868;45.606;5.302;2023-07-22T03:07:12;2.95;;;2.10;;
23390;SDS011;11868;45.606;5.302;2023-07-22T03:09:37;6.35;;;2.35;;
23390;SDS011;11868;45.606;5.302;2023-07-22T03:12:02;2.92;;;2.13;;
23390;SDS011;11868;45.606;5.302;2023-07-22T03:14:28;5.93;;;2.60;;
23390;SDS011;11868;45.606;5.302;2023-07-22T03:16:54;3.63;;;2.42;;
23390;SDS011;11868;45.606;5.302;2023-07-22T03:19:19;4.63;;;2.30;;
23390;SDS011;11868;45.606;5.302;2023-07-22T03:21:44;7.47;;;2.80;;
23390;SDS011;11868;45.606;5.302;2023-07-22T03:24:10;4.57;;;2.50;;
23390;SDS011;11868;45.606;5.302;2023-07-22T03:26:35;5.18;;;2.53;;
23390;SDS011;11868;45.606;5.302;2023-07-22T03:29:00;5.47;;;2.28;;
23390;SDS011;11868;45.606;5.302;2023-07-22T03:31:26;7.97;;;2.22;;
23390;SDS011;11868;45.606;5.302;2023-07-22T03:33:51;6.68;;;2.78;;
23390;SDS011;11868;45.606;5.302;2023-07-22T03:36:17;3.85;;;2.38;;
23390;SDS011;11868;45.606;5.302;2023-07-22T03:38:42;3.67;;;2.60;;
23390;SDS011;11868;45.606;5.302;2023-07-22T03:41:08;3.42;;;2.47;;
23390;SDS011;11868;45.606;5.302;2023-07-22T03:43:33;2.72;;;2.20;;
23390;SDS011;11868;45.606;5.302;2023-07-22T03:45:59;4.32;;;2.38;;
23390;SDS011;11868;45.606;5.302;2023-07-22T03:48:24;5.05;;;2.72;;
23390;SDS011;11868;45.606;5.302;2023-07-22T03:50:49;4.55;;;2.60;;
23390;SDS011;11868;45.606;5.302;2023-07-22T03:53:15;4.43;;;2.60;;
23390;SDS011;11868;45.606;5.302;2023-07-22T03:55:40;4.80;;;2.53;;
23390;SDS011;11868;45.606;5.302;2023-07-22T03:58:06;4.03;;;2.53;;
23390;SDS011;11868;45.606;5.302;2023-07-22T04:00:31;5.00;;;2.58;;
23390;SDS011;11868;45.606;5.302;2023-07-22T04:02:56;4.32;;;2.58;;
23390;SDS011;11868;45.606;5.302;2023-07-22T04:05:22;4.22;;;2.42;;
23390;SDS011;11868;45.606;5.302;2023-07-22T04:07:47;4.43;;;2.20;;
23390;SDS011;11868;45.606;5.302;2023-07-22T04:10:13;3.85;;;2.55;;
23390;SDS011;11868;45.606;5.302;2023-07-22T04:12:38;2.47;;;2.15;;
23390;SDS011;11868;45.606;5.302;2023-07-22T04:15:03;5.20;;;2.75;;
23390;SDS011;11868;45.606;5.302;2023-07-22T04:17:29;10.10;;;2.70;;
23390;SDS011;11868;45.606;5.302;2023-07-22T04:19:54;5.15;;;2.60;;
23390;SDS011;11868;45.606;5.302;2023-07-22T04:22:20;5.38;;;2.30;;
23390;SDS011;11868;45.606;5.302;2023-07-22T04:24:46;4.70;;;2.25;;
23390;SDS011;11868;45.606;5.302;2023-07-22T04:27:13;5.93;;;2.30;;
23390;SDS011;11868;45.606;5.302;2023-07-22T04:29:39;5.72;;;2.53;;
23390;SDS011;11868;45.606;5.302;2023-07-22T04:32:06;4.53;;;2.30;;
23390;SDS011;11868;45.606;5.302;2023-07-22T04:34:33;4.18;;;2.50;;
23390;SDS011;11868;45.606;5.302;2023-07-22T04:36:59;3.90;;;2.55;;
23390;SDS011;11868;45.606;5.302;2023-07-22T04:39:24;6.00;;;2.67;;
23390;SDS011;11868;45.606;5.302;2023-07-22T04:41:50;3.60;;;2.45;;
23390;SDS011;11868;45.606;5.302;2023-07-22T04:44:16;3.88;;;2.38;;
23390;SDS011;11868;45.606;5.302;2023-07-22T04:46:42;4.40;;;2.45;;
23390;SDS011;11868;45.606;5.302;2023-07-22T04:49:07;4.65;;;2.42;;
23390;SDS011;11868;45.606;5.302;2023-07-22T04:51:33;4.50;;;2.80;;
23390;SDS011;11868;45.606;5.302;2023-07-22T04:53:58;3.30;;;2.50;;
23390;SDS011;11868;45.606;5.302;2023-07-22T04:56:24;4.18;;;2.47;;
23390;SDS011;11868;45.606;5.302;2023-07-22T04:58:49;4.75;;;2.45;;
23390;SDS011;11868;45.606;5.302;2023-07-22T05:01:15;3.20;;;2.22;;
23390;SDS011;11868;45.606;5.302;2023-07-22T05:03:40;3.70;;;2.45;;
23390;SDS011;11868;45.606;5.302;2023-07-22T05:06:06;3.58;;;2.58;;
23390;SDS011;11868;45.606;5.302;2023-07-22T05:08:31;3.72;;;2.05;;
23390;SDS011;11868;45.606;5.302;2023-07-22T05:10:57;5.50;;;2.47;;
23390;SDS011;11868;45.606;5.302;2023-07-22T05:13:22;3.60;;;2.45;;
23390;SDS011;11868;45.606;5.302;2023-07-22T05:15:47;6.28;;;2.83;;
23390;SDS011;11868;45.606;5.302;2023-07-22T05:18:12;5.90;;;2.42;;
23390;SDS011;11868;45.606;5.302;2023-07-22T05:20:38;7.82;;;2.40;;
23390;SDS011;11868;45.606;5.302;2023-07-22T05:23:04;7.82;;;2.88;;
23390;SDS011;11868;45.606;5.302;2023-07-22T05:25:29;4.72;;;2.38;;
23390;SDS011;11868;45.606;5.302;2023-07-22T05:27:55;3.88;;;2.47;;
23390;SDS011;11868;45.606;5.302;2023-07-22T05:30:20;4.03;;;2.63;;
23390;SDS011;11868;45.606;5.302;2023-07-22T05:32:45;3.42;;;2.47;;
23390;SDS011;11868;45.606;5.302;2023-07-22T05:35:11;3.38;;;2.45;;
23390;SDS011;11868;45.606;5.302;2023-07-22T05:37:36;5.57;;;2.75;;
23390;SDS011;11868;45.606;5.302;2023-07-22T05:40:02;2.58;;;2.20;;
23390;SDS011;11868;45.606;5.302;2023-07-22T05:42:27;4.10;;;2.45;;
23390;SDS011;11868;45.606;5.302;2023-07-22T05:44:57;4.50;;;2.45;;
23390;SDS011;11868;45.606;5.302;2023-07-22T05:47:23;4.18;;;2.83;;
23390;SDS011;11868;45.606;5.302;2023-07-22T05:49:48;3.33;;;2.45;;
23390;SDS011;11868;45.606;5.302;2023-07-22T05:52:13;5.80;;;2.63;;
23390;SDS011;11868;45.606;5.302;2023-07-22T05:54:39;3.22;;;2.42;;
23390;SDS011;11868;45.606;5.302;2023-07-22T05:57:04;4.43;;;2.53;;
23390;SDS011;11868;45.606;5.302;2023-07-22T05:59:30;3.55;;;2.55;;
23390;SDS011;11868;45.606;5.302;2023-07-22T06:01:56;4.95;;;2.70;;
23390;SDS011;11868;45.606;5.302;2023-07-22T06:04:21;6.07;;;2.53;;
23390;SDS011;11868;45.606;5.302;2023-07-22T06:06:46;7.63;;;2.83;;
23390;SDS011;11868;45.606;5.302;2023-07-22T06:09:12;3.90;;;2.70;;
23390;SDS011;11868;45.606;5.302;2023-07-22T06:11:37;5.78;;;2.60;;
23390;SDS011;11868;45.606;5.302;2023-07-22T06:14:02;4.70;;;2.78;;
23390;SDS011;11868;45.606;5.302;2023-07-22T06:16:28;5.78;;;2.90;;
23390;SDS011;11868;45.606;5.302;2023-07-22T06:18:53;6.05;;;3.45;;
23390;SDS011;11868;45.606;5.302;2023-07-22T06:21:18;8.07;;;3.00;;
23390;SDS011;11868;45.606;5.302;2023-07-22T06:23:44;6.00;;;3.13;;
23390;SDS011;11868;45.606;5.302;2023-07-22T06:26:09;5.45;;;2.38;;
23390;SDS011;11868;45.606;5.302;2023-07-22T06:28:34;4.93;;;2.53;;
23390;SDS011;11868;45.606;5.302;2023-07-22T06:31:00;5.43;;;2.67;;
23390;SDS011;11868;45.606;5.302;2023-07-22T06:33:25;3.90;;;2.45;;
23390;SDS011;11868;45.606;5.302;2023-07-22T06:35:51;7.68;;;2.90;;
23390;SDS011;11868;45.606;5.302;2023-07-22T06:38:16;5.53;;;2.85;;
23390;SDS011;11868;45.606;5.302;2023-07-22T06:40:41;5.22;;;3.20;;
23390;SDS011;11868;45.606;5.302;2023-07-22T06:43:07;4.65;;;2.65;;
23390;SDS011;11868;45.606;5.302;2023-07-22T06:45:32;5.15;;;2.65;;
23390;SDS011;11868;45.606;5.302;2023-07-22T06:47:58;3.95;;;2.30;;
23390;SDS011;11868;45.606;5.302;2023-07-22T06:50:23;4.40;;;2.38;;
23390;SDS011;11868;45.606;5.302;2023-07-22T06:52:49;4.15;;;2.53;;
23390;SDS011;11868;45.606;5.302;2023-07-22T06:55:14;5.70;;;2.50;;
23390;SDS011;11868;45.606;5.302;2023-07-22T06:57:40;3.72;;;2.47;;
23390;SDS011;11868;45.606;5.302;2023-07-22T07:00:05;4.40;;;2.50;;
23390;SDS011;11868;45.606;5.302;2023-07-22T07:02:31;3.80;;;2.50;;
23390;SDS011;11868;45.606;5.302;2023-07-22T07:04:56;7.05;;;2.83;;
23390;SDS011;11868;45.606;5.302;2023-07-22T07:07:22;3.67;;;2.55;;
23390;SDS011;11868;45.606;5.302;2023-07-22T07:09:47;5.93;;;2.80;;
23390;SDS011;11868;45.606;5.302;2023-07-22T07:12:12;7.20;;;2.72;;
23390;SDS011;11868;45.606;5.302;2023-07-22T07:14:38;4.82;;;2.63;;
23390;SDS011;11868;45.606;5.302;2023-07-22T07:17:03;8.10;;;2.42;;
23390;SDS011;11868;45.606;5.302;2023-07-22T07:19:29;4.00;;;2.63;;
23390;SDS011;11868;45.606;5.302;2023-07-22T07:21:54;6.60;;;2.80;;
23390;SDS011;11868;45.606;5.302;2023-07-22T07:24:19;3.85;;;2.67;;
23390;SDS011;11868;45.606;5.302;2023-07-22T07:26:45;4.88;;;2.60;;
23390;SDS011;11868;45.606;5.302;2023-07-22T07:29:10;3.80;;;2.47;;
23390;SDS011;11868;45.606;5.302;2023-07-22T07:31:36;8.70;;;2.72;;
23390;SDS011;11868;45.606;5.302;2023-07-22T07:34:02;2.53;;;2.03;;
23390;SDS011;11868;45.606;5.302;2023-07-22T07:36:27;4.63;;;2.80;;
23390;SDS011;11868;45.606;5.302;2023-07-22T07:38:53;2.78;;;2.38;;
23390;SDS011;11868;45.606;5.302;2023-07-22T07:41:18;5.20;;;2.65;;
23390;SDS011;11868;45.606;5.302;2023-07-22T07:43:44;3.55;;;2.80;;
23390;SDS011;11868;45.606;5.302;2023-07-22T07:46:13;3.22;;;2.15;;
23390;SDS011;11868;45.606;5.302;2023-07-22T07:51:17;3.80;;;2.70;;
23390;SDS011;11868;45.606;5.302;2023-07-22T07:53:43;3.72;;;2.97;;
23390;SDS011;11868;45.606;5.302;2023-07-22T07:56:09;6.70;;;3.10;;
23390;SDS011;11868;45.606;5.302;2023-07-22T07:58:35;8.13;;;2.45;;
23390;SDS011;11868;45.606;5.302;2023-07-22T08:01:00;8.13;;;3.28;;
23390;SDS011;11868;45.606;5.302;2023-07-22T08:03:26;4.07;;;2.45;;
23390;SDS011;11868;45.606;5.302;2023-07-22T08:05:51;4.13;;;2.63;;
23390;SDS011;11868;45.606;5.302;2023-07-22T08:08:16;6.22;;;2.92;;
23390;SDS011;11868;45.606;5.302;2023-07-22T08:10:42;5.47;;;2.67;;
23390;SDS011;11868;45.606;5.302;2023-07-22T08:13:09;9.13;;;2.80;;
23390;SDS011;11868;45.606;5.302;2023-07-22T08:15:35;7.00;;;2.65;;
23390;SDS011;11868;45.606;5.302;2023-07-22T08:18:00;7.70;;;2.60;;
23390;SDS011;11868;45.606;5.302;2023-07-22T08:20:25;6.63;;;2.90;;
23390;SDS011;11868;45.606;5.302;2023-07-22T08:22:51;4.85;;;2.50;;
23390;SDS011;11868;45.606;5.302;2023-07-22T08:25:16;6.75;;;2.33;;
23390;SDS011;11868;45.606;5.302;2023-07-22T08:27:41;6.15;;;2.15;;
23390;SDS011;11868;45.606;5.302;2023-07-22T08:30:07;11.75;;;2.97;;
23390;SDS011;11868;45.606;5.302;2023-07-22T08:32:33;8.45;;;2.60;;
23390;SDS011;11868;45.606;5.302;2023-07-22T08:34:58;5.32;;;2.05;;
23390;SDS011;11868;45.606;5.302;2023-07-22T08:37:23;2.92;;;2.00;;
23390;SDS011;11868;45.606;5.302;2023-07-22T08:39:49;3.58;;;2.35;;
23390;SDS011;11868;45.606;5.302;2023-07-22T08:42:14;6.07;;;2.40;;
23390;SDS011;11868;45.606;5.302;2023-07-22T08:47:09;7.03;;;2.22;;
23390;SDS011;11868;45.606;5.302;2023-07-22T08:49:35;8.00;;;2.00;;
23390;SDS011;11868;45.606;5.302;2023-07-22T08:52:01;3.03;;;1.73;;
23390;SDS011;11868;45.606;5.302;2023-07-22T08:54:26;5.22;;;1.95;;
23390;SDS011;11868;45.606;5.302;2023-07-22T08:56:53;3.22;;;1.80;;
23390;SDS011;11868;45.606;5.302;2023-07-22T08:59:18;2.67;;;1.80;;
23390;SDS011;11868;45.606;5.302;2023-07-22T09:01:44;1.75;;;1.20;;
23390;SDS011;11868;45.606;5.302;2023-07-22T09:04:09;4.35;;;1.30;;
23390;SDS011;11868;45.606;5.302;2023-07-22T09:06:35;3.17;;;1.42;;
23390;SDS011;11868;45.606;5.302;2023-07-22T09:09:01;2.75;;;2.10;;
23390;SDS011;11868;45.606;5.302;2023-07-22T09:11:31;2.42;;;1.60;;
23390;SDS011;11868;45.606;5.302;2023-07-22T09:13:57;4.97;;;1.80;;
23390;SDS011;11868;45.606;5.302;2023-07-22T09:16:23;3.83;;;2.05;;
23390;SDS011;11868;45.606;5.302;2023-07-22T09:18:49;1.92;;;1.73;;
23390;SDS011;11868;45.606;5.302;2023-07-22T09:21:15;3.65;;;1.60;;
23390;SDS011;11868;45.606;5.302;2023-07-22T09:23:40;3.25;;;1.58;;
23390;SDS011;11868;45.606;5.302;2023-07-22T09:26:09;10.82;;;1.70;;
23390;SDS011;11868;45.606;5.302;2023-07-22T09:28:48;3.00;;;1.80;;
23390;SDS011;11868;45.606;5.302;2023-07-22T09:31:17;5.47;;;1.88;;
23390;SDS011;11868;45.606;5.302;2023-07-22T09:33:43;4.30;;;1.70;;
23390;SDS011;11868;45.606;5.302;2023-07-22T09:36:09;2.25;;;1.60;;
23390;SDS011;11868;45.606;5.302;2023-07-22T09:38:35;3.22;;;1.80;;
23390;SDS011;11868;45.606;5.302;2023-07-22T09:41:01;2.22;;;1.70;;
23390;SDS011;11868;45.606;5.302;2023-07-22T09:43:26;7.40;;;1.40;;
23390;SDS011;11868;45.606;5.302;2023-07-22T09:45:52;5.50;;;1.40;;
23390;SDS011;11868;45.606;5.302;2023-07-22T09:48:20;1.83;;;1.10;;
23390;SDS011;11868;45.606;5.302;2023-07-22T09:50:46;2.30;;;1.33;;
23390;SDS011;11868;45.606;5.302;2023-07-22T09:53:21;3.75;;;1.73;;
23390;SDS011;11868;45.606;5.302;2023-07-22T09:55:46;4.32;;;1.58;;
23390;SDS011;11868;45.606;5.302;2023-07-22T09:58:12;1.90;;;1.10;;
23390;SDS011;11868;45.606;5.302;2023-07-22T10:00:39;2.53;;;1.27;;
23390;SDS011;11868;45.606;5.302;2023-07-22T10:03:07;4.00;;;1.20;;
23390;SDS011;11868;45.606;5.302;2023-07-22T10:05:35;1.30;;;1.08;;
23390;SDS011;11868;45.606;5.302;2023-07-22T10:08:01;2.03;;;1.13;;
23390;SDS011;11868;45.606;5.302;2023-07-22T10:10:35;1.83;;;1.40;;
23390;SDS011;11868;45.606;5.302;2023-07-22T10:13:03;1.58;;;1.20;;
23390;SDS011;11868;45.606;5.302;2023-07-22T10:15:29;2.45;;;1.40;;
23390;SDS011;11868;45.606;5.302;2023-07-22T10:17:56;3.92;;;1.85;;
23390;SDS011;11868;45.606;5.302;2023-07-22T10:20:22;3.15;;;1.67;;
23390;SDS011;11868;45.606;5.302;2023-07-22T10:22:48;4.03;;;1.52;;
23390;SDS011;11868;45.606;5.302;2023-07-22T10:25:15;2.42;;;1.50;;
23390;SDS011;11868;45.606;5.302;2023-07-22T10:27:42;3.25;;;1.63;;
23390;SDS011;11868;45.606;5.302;2023-07-22T10:32:35;2.65;;;1.48;;
23390;SDS011;11868;45.606;5.302;2023-07-22T10:35:01;3.90;;;1.63;;
23390;SDS011;11868;45.606;5.302;2023-07-22T10:37:31;4.22;;;1.40;;
23390;SDS011;11868;45.606;5.302;2023-07-22T10:40:01;3.30;;;1.75;;
23390;SDS011;11868;45.606;5.302;2023-07-22T10:42:41;2.60;;;1.45;;
23390;SDS011;11868;45.606;5.302;2023-07-22T10:45:22;5.22;;;1.60;;
23390;SDS011;11868;45.606;5.302;2023-07-22T10:47:59;3.88;;;1.63;;
23390;SDS011;11868;45.606;5.302;2023-07-22T10:50:43;4.35;;;1.60;;
23390;SDS011;11868;45.606;5.302;2023-07-22T10:53:13;3.95;;;1.52;;
23390;SDS011;11868;45.606;5.302;2023-07-22T11:06:59;2.40;;;1.42;;
23390;SDS011;11868;45.606;5.302;2023-07-22T11:11:53;2.00;;;1.30;;
23390;SDS011;11868;45.606;5.302;2023-07-22T11:14:22;2.75;;;1.60;;
23390;SDS011;11868;45.606;5.302;2023-07-22T11:16:49;3.53;;;1.75;;
23390;SDS011;11868;45.606;5.302;2023-07-22T11:19:15;3.78;;;1.40;;
23390;SDS011;11868;45.606;5.302;2023-07-22T11:21:42;2.42;;;1.33;;
23390;SDS011;11868;45.606;5.302;2023-07-22T11:24:08;3.38;;;1.58;;
23390;SDS011;11868;45.606;5.302;2023-07-22T11:26:34;1.88;;;1.23;;
23390;SDS011;11868;45.606;5.302;2023-07-22T11:29:00;2.85;;;1.50;;
23390;SDS011;11868;45.606;5.302;2023-07-22T11:31:30;3.85;;;1.60;;
23390;SDS011;11868;45.606;5.302;2023-07-22T11:33:56;1.80;;;1.40;;
23390;SDS011;11868;45.606;5.302;2023-07-22T11:36:22;2.00;;;1.40;;
23390;SDS011;11868;45.606;5.302;2023-07-22T11:38:47;2.70;;;1.40;;
23390;SDS011;11868;45.606;5.302;2023-07-22T11:41:13;5.90;;;1.35;;
23390;SDS011;11868;45.606;5.302;2023-07-22T11:43:39;1.52;;;1.15;;
23390;SDS011;11868;45.606;5.302;2023-07-22T11:46:05;2.38;;;1.38;;
23390;SDS011;11868;45.606;5.302;2023-07-22T11:48:31;2.13;;;1.30;;
23390;SDS011;11868;45.606;5.302;2023-07-22T11:50:59;2.63;;;1.85;;
23390;SDS011;11868;45.606;5.302;2023-07-22T11:53:28;6.30;;;1.30;;
23390;SDS011;11868;45.606;5.302;2023-07-22T11:55:55;1.52;;;1.40;;
23390;SDS011;11868;45.606;5.302;2023-07-22T11:58:24;4.70;;;1.60;;
23390;SDS011;11868;45.606;5.302;2023-07-22T12:01:01;1.90;;;1.10;;
23390;SDS011;11868;45.606;5.302;2023-07-22T12:03:30;2.50;;;1.50;;
23390;SDS011;11868;45.606;5.302;2023-07-22T12:06:00;2.78;;;1.50;;
23390;SDS011;11868;45.606;5.302;2023-07-22T12:08:26;1.95;;;1.50;;
23390;SDS011;11868;45.606;5.302;2023-07-22T12:10:58;5.10;;;1.60;;
23390;SDS011;11868;45.606;5.302;2023-07-22T12:13:24;2.50;;;1.40;;
23390;SDS011;11868;45.606;5.302;2023-07-22T12:15:59;3.67;;;1.30;;
23390;SDS011;11868;45.606;5.302;2023-07-22T12:18:28;2.47;;;1.30;;
23390;SDS011;11868;45.606;5.302;2023-07-22T12:20:53;1.67;;;1.20;;
23390;SDS011;11868;45.606;5.302;2023-07-22T12:23:18;4.25;;;1.30;;
23390;SDS011;11868;45.606;5.302;2023-07-22T12:25:46;2.33;;;1.23;;
23390;SDS011;11868;45.606;5.302;2023-07-22T12:28:12;1.58;;;1.20;;
23390;SDS011;11868;45.606;5.302;2023-07-22T12:30:37;2.35;;;1.52;;
23390;SDS011;11868;45.606;5.302;2023-07-22T12:33:03;2.25;;;1.13;;
23390;SDS011;11868;45.606;5.302;2023-07-22T12:35:29;1.55;;;1.15;;
23390;SDS011;11868;45.606;5.302;2023-07-22T12:37:54;5.65;;;1.20;;
23390;SDS011;11868;45.606;5.302;2023-07-22T12:40:20;1.50;;;1.30;;
23390;SDS011;11868;45.606;5.302;2023-07-22T12:42:45;2.40;;;1.38;;
23390;SDS011;11868;45.606;5.302;2023-07-22T12:45:12;1.73;;;1.23;;
23390;SDS011;11868;45.606;5.302;2023-07-22T12:47:37;1.48;;;1.20;;
23390;SDS011;11868;45.606;5.302;2023-07-22T12:50:03;1.67;;;1.30;;
23390;SDS011;11868;45.606;5.302;2023-07-22T12:52:29;3.40;;;1.30;;
23390;SDS011;11868;45.606;5.302;2023-07-22T12:54:54;3.15;;;1.40;;
23390;SDS011;11868;45.606;5.302;2023-07-22T12:57:20;3.70;;;1.48;;
23390;SDS011;11868;45.606;5.302;2023-07-22T12:59:45;2.35;;;1.10;;
23390;SDS011;11868;45.606;5.302;2023-07-22T13:02:11;3.03;;;1.23;;
23390;SDS011;11868;45.606;5.302;2023-07-22T13:04:36;2.38;;;1.38;;
23390;SDS011;11868;45.606;5.302;2023-07-22T13:07:02;2.72;;;1.35;;
23390;SDS011;11868;45.606;5.302;2023-07-22T13:09:28;2.40;;;1.40;;
23390;SDS011;11868;45.606;5.302;2023-07-22T13:11:53;1.85;;;1.10;;
23390;SDS011;11868;45.606;5.302;2023-07-22T13:14:19;3.33;;;1.35;;
23390;SDS011;11868;45.606;5.302;2023-07-22T13:16:44;1.85;;;1.33;;
23390;SDS011;11868;45.606;5.302;2023-07-22T13:19:09;1.65;;;1.23;;
23390;SDS011;11868;45.606;5.302;2023-07-22T13:21:35;1.75;;;1.20;;
23390;SDS011;11868;45.606;5.302;2023-07-22T13:24:00;1.58;;;1.38;;
23390;SDS011;11868;45.606;5.302;2023-07-22T13:26:26;2.47;;;1.30;;
23390;SDS011;11868;45.606;5.302;2023-07-22T13:28:51;1.55;;;1.20;;
23390;SDS011;11868;45.606;5.302;2023-07-22T13:31:17;1.83;;;1.23;;
23390;SDS011;11868;45.606;5.302;2023-07-22T13:33:43;1.80;;;1.40;;
23390;SDS011;11868;45.606;5.302;2023-07-22T13:36:09;2.17;;;1.33;;
23390;SDS011;11868;45.606;5.302;2023-07-22T13:38:34;4.10;;;1.27;;
23390;SDS011;11868;45.606;5.302;2023-07-22T13:40:59;2.60;;;1.40;;
23390;SDS011;11868;45.606;5.302;2023-07-22T13:43:25;3.15;;;1.50;;
23390;SDS011;11868;45.606;5.302;2023-07-22T13:45:52;3.80;;;1.15;;
23390;SDS011;11868;45.606;5.302;2023-07-22T13:48:17;5.05;;;1.20;;
23390;SDS011;11868;45.606;5.302;2023-07-22T13:50:42;3.85;;;1.30;;
23390;SDS011;11868;45.606;5.302;2023-07-22T13:53:08;2.13;;;1.40;;
23390;SDS011;11868;45.606;5.302;2023-07-22T13:55:33;2.15;;;1.40;;
23390;SDS011;11868;45.606;5.302;2023-07-22T13:57:58;1.20;;;1.10;;
23390;SDS011;11868;45.606;5.302;2023-07-22T14:00:24;2.30;;;1.50;;
23390;SDS011;11868;45.606;5.302;2023-07-22T14:02:49;3.72;;;1.40;;
23390;SDS011;11868;45.606;5.302;2023-07-22T14:05:15;3.17;;;1.42;;
23390;SDS011;11868;45.606;5.302;2023-07-22T14:07:40;1.20;;;1.10;;
23390;SDS011;11868;45.606;5.302;2023-07-22T14:10:05;1.80;;;1.48;;
23390;SDS011;11868;45.606;5.302;2023-07-22T14:12:31;1.50;;;1.38;;
23390;SDS011;11868;45.606;5.302;2023-07-22T14:14:56;4.25;;;1.60;;
23390;SDS011;11868;45.606;5.302;2023-07-22T14:17:22;3.47;;;1.30;;
23390;SDS011;11868;45.606;5.302;2023-07-22T14:19:47;2.00;;;1.40;;
23390;SDS011;11868;45.606;5.302;2023-07-22T14:22:13;3.38;;;1.40;;
23390;SDS011;11868;45.606;5.302;2023-07-22T14:24:38;4.97;;;1.70;;
23390;SDS011;11868;45.606;5.302;2023-07-22T14:27:04;1.48;;;1.33;;
23390;SDS011;11868;45.606;5.302;2023-07-22T14:29:29;1.92;;;1.40;;
23390;SDS011;11868;45.606;5.302;2023-07-22T14:31:58;3.58;;;1.55;;
23390;SDS011;11868;45.606;5.302;2023-07-22T14:34:23;2.22;;;1.45;;
23390;SDS011;11868;45.606;5.302;2023-07-22T14:36:49;2.00;;;1.30;;
23390;SDS011;11868;45.606;5.302;2023-07-22T14:39:15;1.45;;;1.35;;
23390;SDS011;11868;45.606;5.302;2023-07-22T14:41:41;1.90;;;1.38;;
23390;SDS011;11868;45.606;5.302;2023-07-22T14:44:08;2.38;;;1.40;;
23390;SDS011;11868;45.606;5.302;2023-07-22T14:46:34;1.67;;;1.15;;
23390;SDS011;11868;45.606;5.302;2023-07-22T14:48:59;2.50;;;1.23;;
23390;SDS011;11868;45.606;5.302;2023-07-22T14:51:26;2.97;;;1.20;;
23390;SDS011;11868;45.606;5.302;2023-07-22T14:53:51;2.03;;;1.35;;
23390;SDS011;11868;45.606;5.302;2023-07-22T14:56:17;2.00;;;1.48;;
23390;SDS011;11868;45.606;5.302;2023-07-22T14:58:42;2.10;;;1.60;;
23390;SDS011;11868;45.606;5.302;2023-07-22T15:01:08;4.05;;;1.30;;
23390;SDS011;11868;45.606;5.302;2023-07-22T15:03:34;4.03;;;1.50;;